Time;durP1;ratioP1;P1;durP2;ratioP2;P2;SDS_P1;SDS_P2;PMS_P1;PMS_P2;Temp;Humidity;BMP_temperature;BMP_pressure;BME280_temperature;BME280_humidity;BME280_pressure;Samples;Min_cycle;Max_cycle;Signal;HPM_P1;HPM_P2
2020/12/16 00:01:51;;;;;;;83.68;34.63;;;;;;;;;;4938505;29;20055;-84
2020/12/16 00:04:18;;;;;;;83.95;34.97;;;;;;;;;;4942303;29;20040;-84
2020/12/16 00:06:53;;;;;;;81.68;34.13;;;;;;;;;;4949717;29;20078;-83
2020/12/16 00:09:22;;;;;;;70.03;33.63;;;;;;;;;;4952754;29;20044;-83
2020/12/16 00:11:48;;;;;;;76.07;35.03;;;;;;;;;;4930527;29;20134;-83
2020/12/16 00:17:34;;;;;;;65.85;32.67;;;;;;;;;;4933233;29;20051;-82
2020/12/16 00:20:01;;;;;;;68.80;30.95;;;;;;;;;;4939033;29;20448;-82
2020/12/16 00:22:40;;;;;;;78.05;34.03;;;;;;;;;;4962543;29;20504;-82
2020/12/16 00:25:11;;;;;;;71.15;31.85;;;;;;;;;;4953325;29;20060;-83
2020/12/16 00:27:41;;;;;;;79.00;33.88;;;;;;;;;;4938495;29;20056;-83
2020/12/16 00:30:07;;;;;;;66.57;32.63;;;;;;;;;;4931954;29;20139;-83
2020/12/16 00:32:37;;;;;;;77.07;33.90;;;;;;;;;;4949470;29;20059;-83
2020/12/16 00:35:07;;;;;;;74.47;31.10;;;;;;;;;;4934006;29;20523;-83
2020/12/16 00:37:37;;;;;;;71.57;32.22;;;;;;;;;;4926483;29;20052;-83
2020/12/16 00:40:04;;;;;;;83.63;33.58;;;;;;;;;;4934115;29;20062;-83
2020/12/16 00:42:33;;;;;;;74.65;31.60;;;;;;;;;;4940351;29;20055;-83
2020/12/16 00:45:04;;;;;;;75.80;31.88;;;;;;;;;;4944448;29;20064;-83
2020/12/16 00:47:37;;;;;;;69.43;31.45;;;;;;;;;;4932084;29;20425;-83
2020/12/16 00:50:04;;;;;;;65.25;31.63;;;;;;;;;;4949944;29;20047;-83
2020/12/16 00:52:42;;;;;;;66.07;31.33;;;;;;;;;;4950949;29;20059;-83
2020/12/16 00:55:09;;;;;;;70.35;32.33;;;;;;;;;;4949883;29;20048;-82
2020/12/16 00:57:40;;;;;;;65.30;29.92;;;;;;;;;;4933399;29;20452;-83
2020/12/16 01:00:07;;;;;;;70.53;32.55;;;;;;;;;;4944325;29;20056;-83
2020/12/16 01:02:37;;;;;;;69.22;32.10;;;;;;;;;;4942509;29;20052;-83
2020/12/16 01:05:11;;;;;;;68.78;31.80;;;;;;;;;;4929682;29;20062;-83
2020/12/16 01:07:38;;;;;;;62.22;29.63;;;;;;;;;;4935784;29;20056;-83
2020/12/16 01:10:04;;;;;;;75.18;31.80;;;;;;;;;;4931634;29;20075;-83
2020/12/16 01:12:35;;;;;;;75.35;31.92;;;;;;;;;;4941416;29;20055;-83
2020/12/16 01:15:03;;;;;;;76.60;32.60;;;;;;;;;;4934395;29;20064;-83
2020/12/16 01:17:29;;;;;;;76.60;32.67;;;;;;;;;;4927067;29;20061;-83
2020/12/16 01:19:55;;;;;;;74.97;31.73;;;;;;;;;;4951005;29;20114;-84
2020/12/16 01:22:25;;;;;;;75.15;31.33;;;;;;;;;;4930120;29;20138;-84
2020/12/16 01:24:51;;;;;;;69.20;31.10;;;;;;;;;;4947381;29;20055;-83
2020/12/16 01:27:17;;;;;;;89.82;37.00;;;;;;;;;;4944485;29;20137;-83
2020/12/16 01:29:43;;;;;;;80.15;35.47;;;;;;;;;;4945787;29;20050;-83
2020/12/16 01:32:13;;;;;;;89.78;35.65;;;;;;;;;;4946383;29;20055;-84
2020/12/16 01:34:39;;;;;;;79.00;33.33;;;;;;;;;;4946056;29;20118;-83
2020/12/16 01:37:07;;;;;;;75.95;31.63;;;;;;;;;;4945990;29;20327;-84
2020/12/16 01:39:33;;;;;;;83.43;34.38;;;;;;;;;;4962374;29;20051;-83
2020/12/16 01:42:02;;;;;;;84.60;33.80;;;;;;;;;;4962596;29;20420;-83
2020/12/16 01:44:29;;;;;;;84.60;32.22;;;;;;;;;;4946269;29;20059;-83
2020/12/16 01:46:56;;;;;;;90.95;35.30;;;;;;;;;;4947007;29;20061;-83
2020/12/16 01:49:25;;;;;;;85.95;34.22;;;;;;;;;;4963493;29;20051;-83
2020/12/16 01:51:56;;;;;;;78.95;33.30;;;;;;;;;;4962774;29;20052;-83
2020/12/16 01:54:24;;;;;;;75.65;32.42;;;;;;;;;;4964005;29;20047;-83
2020/12/16 01:56:57;;;;;;;72.50;31.73;;;;;;;;;;4947549;29;20055;-83
2020/12/16 01:59:34;;;;;;;72.43;31.58;;;;;;;;;;4963024;29;20050;-83
2020/12/16 02:02:02;;;;;;;73.45;31.58;;;;;;;;;;4961606;29;20055;-83
2020/12/16 02:04:32;;;;;;;73.57;30.95;;;;;;;;;;4964622;29;20142;-83
2020/12/16 02:07:06;;;;;;;89.35;35.08;;;;;;;;;;4968906;29;20226;-82
2020/12/16 02:09:37;;;;;;;76.80;33.10;;;;;;;;;;4961067;28;20111;-84
2020/12/16 02:12:07;;;;;;;74.07;30.23;;;;;;;;;;4978003;28;20050;-84
2020/12/16 02:14:33;;;;;;;71.70;30.50;;;;;;;;;;4957040;28;20060;-84
2020/12/16 02:17:00;;;;;;;74.53;29.05;;;;;;;;;;4958220;28;20103;-83
2020/12/16 02:19:28;;;;;;;76.10;31.88;;;;;;;;;;4962009;28;20066;-84
2020/12/16 02:21:55;;;;;;;82.85;31.58;;;;;;;;;;4966130;29;20058;-84
2020/12/16 02:24:22;;;;;;;72.85;30.98;;;;;;;;;;4963354;29;20043;-84
2020/12/16 02:26:48;;;;;;;77.22;30.80;;;;;;;;;;4948330;29;20059;-84
2020/12/16 02:29:14;;;;;;;67.03;30.40;;;;;;;;;;4948604;29;20067;-83
2020/12/16 02:31:41;;;;;;;65.55;29.23;;;;;;;;;;4963030;29;20070;-84
2020/12/16 02:34:07;;;;;;;72.55;28.88;;;;;;;;;;4947496;29;20056;-84
2020/12/16 02:36:33;;;;;;;70.72;30.38;;;;;;;;;;4947093;29;20119;-84
2020/12/16 02:39:06;;;;;;;68.45;30.42;;;;;;;;;;4962596;29;20086;-84
2020/12/16 02:41:32;;;;;;;64.07;28.83;;;;;;;;;;4961896;29;20138;-84
2020/12/16 02:43:59;;;;;;;62.17;26.98;;;;;;;;;;4946349;29;20052;-84
2020/12/16 02:46:25;;;;;;;62.92;27.20;;;;;;;;;;4962110;29;20102;-84
2020/12/16 02:48:51;;;;;;;62.63;26.92;;;;;;;;;;4947298;29;20059;-84
2020/12/16 02:51:17;;;;;;;76.90;30.00;;;;;;;;;;4946500;29;20051;-84
2020/12/16 02:53:58;;;;;;;80.15;31.15;;;;;;;;;;4959784;29;20059;-84
2020/12/16 02:56:28;;;;;;;74.75;29.65;;;;;;;;;;4945451;29;20052;-84
2020/12/16 02:58:54;;;;;;;63.35;27.33;;;;;;;;;;4961029;29;20060;-83
2020/12/16 03:01:20;;;;;;;68.88;29.58;;;;;;;;;;4946235;29;20052;-83
2020/12/16 03:03:46;;;;;;;62.25;28.60;;;;;;;;;;4947037;29;20051;-83
2020/12/16 03:06:14;;;;;;;69.93;30.02;;;;;;;;;;4946544;29;20062;-84
2020/12/16 03:08:40;;;;;;;62.40;27.10;;;;;;;;;;4961984;29;20056;-84
2020/12/16 03:11:06;;;;;;;64.07;27.73;;;;;;;;;;4947345;29;20356;-84
2020/12/16 03:13:33;;;;;;;65.65;26.42;;;;;;;;;;4954117;29;20083;-84
2020/12/16 03:15:59;;;;;;;62.90;28.20;;;;;;;;;;4972001;29;20119;-84
2020/12/16 03:18:28;;;;;;;57.53;26.23;;;;;;;;;;4975334;29;20054;-84
2020/12/16 03:20:56;;;;;;;63.92;28.08;;;;;;;;;;4976216;29;20074;-84
2020/12/16 03:23:27;;;;;;;67.05;29.85;;;;;;;;;;4976305;29;20130;-84
2020/12/16 03:25:53;;;;;;;67.00;28.88;;;;;;;;;;4977842;29;20079;-84
2020/12/16 03:28:19;;;;;;;68.28;28.83;;;;;;;;;;4974858;28;20081;-84
2020/12/16 03:30:45;;;;;;;60.25;27.65;;;;;;;;;;4974229;29;20058;-84
2020/12/16 03:33:12;;;;;;;64.63;28.17;;;;;;;;;;4974818;29;20066;-84
2020/12/16 03:35:38;;;;;;;56.67;25.90;;;;;;;;;;4957975;29;20055;-85
2020/12/16 03:38:04;;;;;;;57.20;27.00;;;;;;;;;;4958183;29;20098;-84
2020/12/16 03:40:31;;;;;;;52.80;25.98;;;;;;;;;;4973146;29;20051;-84
2020/12/16 03:42:57;;;;;;;58.05;27.67;;;;;;;;;;4971380;29;20055;-84
2020/12/16 03:45:23;;;;;;;60.80;26.77;;;;;;;;;;4967446;29;20348;-84
2020/12/16 03:47:49;;;;;;;58.08;26.17;;;;;;;;;;4967185;29;20055;-84
2020/12/16 03:50:22;;;;;;;58.83;26.50;;;;;;;;;;4964694;29;20051;-84
2020/12/16 03:52:48;;;;;;;62.83;29.65;;;;;;;;;;4949814;29;20483;-84
2020/12/16 03:55:14;;;;;;;61.75;28.02;;;;;;;;;;4948193;29;20125;-84
2020/12/16 03:57:56;;;;;;;55.22;25.73;;;;;;;;;;4966261;29;20085;-84
2020/12/16 04:00:22;;;;;;;60.03;26.67;;;;;;;;;;4947462;29;20118;-81
2020/12/16 04:02:48;;;;;;;62.13;27.98;;;;;;;;;;4962751;29;20051;-81
2020/12/16 04:05:14;;;;;;;55.15;26.50;;;;;;;;;;4944942;29;20355;-82
2020/12/16 04:07:41;;;;;;;57.45;27.80;;;;;;;;;;4960697;29;20047;-81
2020/12/16 04:10:07;;;;;;;55.03;26.40;;;;;;;;;;4961737;29;20631;-81
2020/12/16 04:12:33;;;;;;;54.92;26.08;;;;;;;;;;4945596;29;20043;-81
2020/12/16 04:15:03;;;;;;;56.60;26.90;;;;;;;;;;4960555;29;20502;-81
2020/12/16 04:17:34;;;;;;;51.42;24.67;;;;;;;;;;4962555;29;20216;-82
2020/12/16 04:20:00;;;;;;;60.00;27.10;;;;;;;;;;4962227;29;20118;-82
2020/12/16 04:22:29;;;;;;;55.67;25.75;;;;;;;;;;4962230;29;20532;-81
2020/12/16 04:24:57;;;;;;;53.42;26.00;;;;;;;;;;4962419;29;20056;-81
2020/12/16 04:27:23;;;;;;;53.03;25.92;;;;;;;;;;4945476;29;20110;-82
2020/12/16 04:29:49;;;;;;;52.85;24.30;;;;;;;;;;4946248;29;20055;-80
2020/12/16 04:32:22;;;;;;;68.95;26.85;;;;;;;;;;4944752;29;20126;-81
2020/12/16 04:34:48;;;;;;;52.38;26.23;;;;;;;;;;4960926;29;20055;-81
2020/12/16 04:37:14;;;;;;;54.63;25.25;;;;;;;;;;4944787;29;20051;-81
2020/12/16 04:39:40;;;;;;;52.90;25.73;;;;;;;;;;4961794;28;20119;-81
2020/12/16 04:42:12;;;;;;;53.80;24.98;;;;;;;;;;4962061;29;20057;-80
2020/12/16 04:44:40;;;;;;;55.25;27.52;;;;;;;;;;4960274;29;20146;-80
2020/12/16 04:47:07;;;;;;;52.38;25.80;;;;;;;;;;4961904;29;20055;-81
2020/12/16 04:49:35;;;;;;;53.55;25.38;;;;;;;;;;4961590;29;20055;-81
2020/12/16 04:52:04;;;;;;;50.15;25.65;;;;;;;;;;4943443;29;20065;-81
2020/12/16 04:54:32;;;;;;;51.72;25.40;;;;;;;;;;4942767;29;20047;-80
2020/12/16 04:57:03;;;;;;;53.55;24.90;;;;;;;;;;4931242;29;20543;-81
2020/12/16 04:59:30;;;;;;;48.50;23.42;;;;;;;;;;4940621;29;20056;-81
2020/12/16 05:01:56;;;;;;;58.40;25.05;;;;;;;;;;4929359;29;20548;-81
2020/12/16 05:04:22;;;;;;;51.60;24.25;;;;;;;;;;4958188;29;20051;-81
2020/12/16 05:06:58;;;;;;;52.80;24.20;;;;;;;;;;4942921;29;20066;-81
2020/12/16 05:09:24;;;;;;;52.28;24.67;;;;;;;;;;4960036;29;20094;-81
2020/12/16 05:11:51;;;;;;;50.30;22.08;;;;;;;;;;4960945;29;20498;-81
2020/12/16 05:14:17;;;;;;;45.50;22.48;;;;;;;;;;4955210;29;20075;-80
2020/12/16 05:17:14;;;;;;;49.75;22.77;;;;;;;;;;4972610;29;20047;-80
2020/12/16 05:19:40;;;;;;;;;;;;;;;;;;4949649;29;20055;-81
2020/12/16 05:22:18;;;;;;;49.35;21.58;;;;;;;;;;4952486;29;20227;-82
2020/12/16 05:24:58;;;;;;;49.08;23.50;;;;;;;;;;4939166;29;20085;-79
2020/12/16 05:27:26;;;;;;;49.63;23.48;;;;;;;;;;4919080;29;20099;-80
2020/12/16 05:29:56;;;;;;;48.97;23.25;;;;;;;;;;4924756;29;20518;-79
2020/12/16 05:32:27;;;;;;;46.92;20.30;;;;;;;;;;4942512;29;20318;-80
2020/12/16 05:34:54;;;;;;;50.47;21.08;;;;;;;;;;4932019;29;20126;-79
2020/12/16 05:37:38;;;;;;;49.83;20.88;;;;;;;;;;4935927;29;20071;-80
2020/12/16 05:40:06;;;;;;;39.63;20.23;;;;;;;;;;4945893;29;20119;-80
2020/12/16 05:42:32;;;;;;;37.22;20.23;;;;;;;;;;4919128;29;20488;-80
2020/12/16 05:45:10;;;;;;;41.85;19.50;;;;;;;;;;4939282;29;20392;-80
2020/12/16 05:47:39;;;;;;;41.13;18.20;;;;;;;;;;4931212;29;20052;-79
2020/12/16 05:50:14;;;;;;;47.75;21.15;;;;;;;;;;4945028;29;20052;-81
2020/12/16 05:52:40;;;;;;;38.70;18.67;;;;;;;;;;4934887;29;20055;-81
2020/12/16 05:55:25;;;;;;;42.65;19.77;;;;;;;;;;4936507;29;20595;-81
2020/12/16 05:58:12;;;;;;;40.42;18.85;;;;;;;;;;4917476;29;20062;-81
2020/12/16 06:00:54;;;;;;;40.70;20.40;;;;;;;;;;4935623;29;20050;-81
2020/12/16 06:03:27;;;;;;;38.38;19.52;;;;;;;;;;4934688;29;20043;-81
2020/12/16 06:06:02;;;;;;;43.15;19.30;;;;;;;;;;4932836;29;20047;-80
2020/12/16 06:08:35;;;;;;;42.08;18.63;;;;;;;;;;4937782;29;20073;-80
2020/12/16 06:11:09;;;;;;;43.42;20.02;;;;;;;;;;4936597;29;20055;-82
2020/12/16 06:13:36;;;;;;;43.55;19.80;;;;;;;;;;4932105;29;20133;-81
2020/12/16 06:16:03;;;;;;;45.15;19.30;;;;;;;;;;4939801;29;20055;-81
2020/12/16 06:18:37;;;;;;;47.47;19.40;;;;;;;;;;4940508;29;20075;-81
2020/12/16 06:21:07;;;;;;;43.53;19.88;;;;;;;;;;4942305;29;20043;-80
2020/12/16 06:23:35;;;;;;;46.65;20.25;;;;;;;;;;4936125;29;20133;-81
2020/12/16 06:26:27;;;;;;;45.47;20.00;;;;;;;;;;4934996;29;21904;-81
2020/12/16 06:28:54;;;;;;;52.05;22.10;;;;;;;;;;4918574;29;20058;-81
2020/12/16 06:31:20;;;;;;;44.28;19.83;;;;;;;;;;4934498;29;20079;-81
2020/12/16 06:33:52;;;;;;;48.30;20.10;;;;;;;;;;4916871;29;20059;-80
2020/12/16 06:36:19;;;;;;;46.70;19.35;;;;;;;;;;4918983;29;20072;-81
2020/12/16 06:38:47;;;;;;;52.00;21.33;;;;;;;;;;4919677;29;20048;-82
2020/12/16 06:41:23;;;;;;;55.70;21.42;;;;;;;;;;4932259;29;20054;-82
2020/12/16 06:43:50;;;;;;;54.78;23.05;;;;;;;;;;4935329;29;20052;-81
2020/12/16 06:46:30;;;;;;;46.67;21.15;;;;;;;;;;4936258;29;20416;-80
2020/12/16 06:48:57;;;;;;;46.35;19.02;;;;;;;;;;4935030;29;20078;-81
2020/12/16 06:51:24;;;;;;;51.55;21.15;;;;;;;;;;4918772;29;20166;-80
2020/12/16 06:54:10;;;;;;;51.35;21.20;;;;;;;;;;4935015;29;20051;-80
2020/12/16 06:56:46;;;;;;;48.95;21.30;;;;;;;;;;4908339;29;20051;-81
2020/12/16 06:59:13;;;;;;;57.75;22.73;;;;;;;;;;4934056;29;20058;-80
2020/12/16 07:01:39;;;;;;;58.00;21.92;;;;;;;;;;4936034;29;20123;-80
2020/12/16 07:04:12;;;;;;;54.47;21.20;;;;;;;;;;4936489;29;20477;-81
2020/12/16 07:06:41;;;;;;;49.17;19.90;;;;;;;;;;4945932;29;20067;-81
2020/12/16 07:09:14;;;;;;;49.33;19.98;;;;;;;;;;4942613;29;20054;-81
2020/12/16 07:11:59;;;;;;;62.83;20.20;;;;;;;;;;4925166;29;20056;-81
2020/12/16 07:14:31;;;;;;;52.55;20.95;;;;;;;;;;4922149;29;20420;-82
2020/12/16 07:17:08;;;;;;;52.50;22.65;;;;;;;;;;4938548;29;20067;-81
2020/12/16 07:19:34;;;;;;;56.60;22.98;;;;;;;;;;4933917;29;20468;-81
2020/12/16 07:22:19;;;;;;;56.72;21.88;;;;;;;;;;4922543;29;20050;-81
2020/12/16 07:24:51;;;;;;;48.08;21.75;;;;;;;;;;4936754;29;20103;-81
2020/12/16 07:27:20;;;;;;;60.55;22.75;;;;;;;;;;4921451;29;20253;-81
2020/12/16 07:29:59;;;;;;;47.85;22.15;;;;;;;;;;4937331;29;20405;-81
2020/12/16 07:32:26;;;;;;;52.42;23.70;;;;;;;;;;4937771;29;20051;-81
2020/12/16 07:34:57;;;;;;;59.67;24.42;;;;;;;;;;4920931;29;20411;-80
2020/12/16 07:37:23;;;;;;;62.80;25.75;;;;;;;;;;4941095;29;20312;-80
2020/12/16 07:40:00;;;;;;;64.68;25.38;;;;;;;;;;4934940;29;20095;-81
2020/12/16 07:42:27;;;;;;;65.25;25.50;;;;;;;;;;4934650;29;20083;-81
2020/12/16 07:44:54;;;;;;;64.45;26.30;;;;;;;;;;4920162;29;20089;-81
2020/12/16 07:47:21;;;;;;;62.67;27.13;;;;;;;;;;4921238;29;20123;-82
2020/12/16 07:49:48;;;;;;;72.25;28.58;;;;;;;;;;4937401;29;20059;-81
2020/12/16 07:52:28;;;;;;;69.00;28.80;;;;;;;;;;4936563;29;20653;-81
2020/12/16 07:54:57;;;;;;;76.97;30.30;;;;;;;;;;4920229;29;20052;-81
2020/12/16 07:57:27;;;;;;;83.38;31.60;;;;;;;;;;4935540;29;20099;-81
2020/12/16 07:59:54;;;;;;;90.32;34.88;;;;;;;;;;4920492;29;20387;-81
2020/12/16 08:02:20;;;;;;;78.50;33.00;;;;;;;;;;4938325;29;20233;-82
2020/12/16 08:04:53;;;;;;;70.68;28.67;;;;;;;;;;4938095;29;20043;-81
2020/12/16 08:07:20;;;;;;;69.90;28.02;;;;;;;;;;4920641;29;20062;-81
2020/12/16 08:09:53;;;;;;;74.93;32.15;;;;;;;;;;4938700;29;20051;-82
2020/12/16 08:12:20;;;;;;;73.45;30.33;;;;;;;;;;4936471;29;20079;-81
2020/12/16 08:14:49;;;;;;;63.83;27.83;;;;;;;;;;4931009;29;20056;-80
2020/12/16 08:17:16;;;;;;;56.03;25.73;;;;;;;;;;4942742;29;20048;-80
2020/12/16 08:19:49;;;;;;;55.53;27.65;;;;;;;;;;4921935;29;20108;-80
2020/12/16 08:22:16;;;;;;;51.80;24.55;;;;;;;;;;4916485;29;20148;-80
2020/12/16 08:24:59;;;;;;;56.47;26.52;;;;;;;;;;4916350;29;20131;-80
2020/12/16 08:27:32;;;;;;;57.10;26.55;;;;;;;;;;4918151;29;20444;-81
2020/12/16 08:30:02;;;;;;;43.92;24.08;;;;;;;;;;4932191;29;20063;-80
2020/12/16 08:32:32;;;;;;;54.20;26.80;;;;;;;;;;4931326;29;20142;-80
2020/12/16 08:35:02;;;;;;;47.92;23.77;;;;;;;;;;4931002;29;20048;-80
2020/12/16 08:37:29;;;;;;;52.88;25.98;;;;;;;;;;4926167;29;20102;-81
2020/12/16 08:40:01;;;;;;;49.35;25.13;;;;;;;;;;4917977;29;20048;-80
2020/12/16 08:42:30;;;;;;;47.63;25.10;;;;;;;;;;4913194;29;20127;-80
2020/12/16 08:45:09;;;;;;;50.88;25.40;;;;;;;;;;4933541;29;20051;-81
2020/12/16 08:47:36;;;;;;;52.78;25.88;;;;;;;;;;4910931;29;20131;-81
2020/12/16 08:50:14;;;;;;;51.70;26.13;;;;;;;;;;4917794;29;20048;-80
2020/12/16 08:52:42;;;;;;;48.55;25.58;;;;;;;;;;4918325;29;20048;-80
2020/12/16 08:55:26;;;;;;;45.80;24.13;;;;;;;;;;4917430;29;20113;-81
2020/12/16 08:58:02;;;;;;;52.45;24.77;;;;;;;;;;4913846;29;20051;-82
2020/12/16 09:00:30;;;;;;;49.92;24.88;;;;;;;;;;4930680;29;20055;-81
2020/12/16 09:03:00;;;;;;;51.10;26.38;;;;;;;;;;4940520;29;20040;-81
2020/12/16 09:05:38;;;;;;;52.05;25.38;;;;;;;;;;4933204;29;20040;-82
2020/12/16 09:08:15;;;;;;;52.65;25.58;;;;;;;;;;4924296;29;20055;-82
2020/12/16 09:10:58;;;;;;;50.08;23.38;;;;;;;;;;4916802;29;20080;-82
2020/12/16 09:13:31;;;;;;;59.17;24.65;;;;;;;;;;4935829;29;20052;-81
2020/12/16 09:16:00;;;;;;;51.67;23.23;;;;;;;;;;4945425;29;20052;-81
2020/12/16 09:18:33;;;;;;;51.67;23.77;;;;;;;;;;4950281;29;20051;-81
2020/12/16 09:21:05;;;;;;;53.95;23.48;;;;;;;;;;4937210;29;20148;-82
2020/12/16 09:23:34;;;;;;;62.03;25.50;;;;;;;;;;4919429;29;20047;-81
2020/12/16 09:26:01;;;;;;;52.00;24.48;;;;;;;;;;4931198;29;20059;-80
2020/12/16 09:28:35;;;;;;;57.72;24.10;;;;;;;;;;4935650;29;20066;-81
2020/12/16 09:31:20;;;;;;;55.30;24.67;;;;;;;;;;4927969;29;20052;-81
2020/12/16 09:33:56;;;;;;;61.15;27.70;;;;;;;;;;4904415;29;20139;-82
2020/12/16 09:36:26;;;;;;;71.32;27.88;;;;;;;;;;4924321;29;20052;-81
2020/12/16 09:38:59;;;;;;;54.88;26.05;;;;;;;;;;4933773;29;20052;-81
2020/12/16 09:41:26;;;;;;;56.67;26.65;;;;;;;;;;4931965;29;20047;-81
2020/12/16 09:43:54;;;;;;;59.80;28.75;;;;;;;;;;4935190;29;20083;-82
2020/12/16 09:46:24;;;;;;;56.83;26.15;;;;;;;;;;4931773;29;20051;-81
2020/12/16 09:49:03;;;;;;;63.70;26.95;;;;;;;;;;4934132;29;20060;-81
2020/12/16 09:51:33;;;;;;;64.43;26.80;;;;;;;;;;4934555;29;20060;-82
2020/12/16 09:54:00;;;;;;;55.30;25.77;;;;;;;;;;4918696;29;20388;-80
2020/12/16 09:56:27;;;;;;;61.05;27.15;;;;;;;;;;4934204;29;20047;-81
2020/12/16 09:58:54;;;;;;;56.97;27.33;;;;;;;;;;4934604;29;20086;-80
2020/12/16 10:01:21;;;;;;;61.80;26.13;;;;;;;;;;4918297;29;20352;-81
2020/12/16 10:03:48;;;;;;;49.25;24.63;;;;;;;;;;4919355;29;20079;-81
2020/12/16 10:06:15;;;;;;;47.08;23.92;;;;;;;;;;4919573;29;20642;-81
2020/12/16 10:08:42;;;;;;;50.55;25.00;;;;;;;;;;4920305;29;20060;-80
2020/12/16 10:11:15;;;;;;;51.55;24.05;;;;;;;;;;4934187;29;20044;-81
2020/12/16 10:13:42;;;;;;;49.55;24.27;;;;;;;;;;4934831;29;20056;-81
2020/12/16 10:16:09;;;;;;;52.17;24.73;;;;;;;;;;4929644;29;20063;-81
2020/12/16 10:18:36;;;;;;;54.22;24.15;;;;;;;;;;4915418;29;20043;-81
2020/12/16 10:21:03;;;;;;;57.13;22.73;;;;;;;;;;4934499;29;20058;-80
2020/12/16 10:23:30;;;;;;;59.78;25.10;;;;;;;;;;4933955;29;20048;-80
2020/12/16 10:26:00;;;;;;;51.42;23.17;;;;;;;;;;4916789;29;20218;-81
2020/12/16 10:28:34;;;;;;;45.90;22.33;;;;;;;;;;4929906;29;20529;-81
2020/12/16 10:31:00;;;;;;;52.70;24.25;;;;;;;;;;4931963;29;20245;-82
2020/12/16 10:33:30;;;;;;;60.35;25.30;;;;;;;;;;4923982;29;20040;-81
2020/12/16 10:35:59;;;;;;;44.65;24.08;;;;;;;;;;4931160;29;20147;-81
2020/12/16 10:38:26;;;;;;;46.72;24.45;;;;;;;;;;4924587;29;20400;-81
2020/12/16 10:40:52;;;;;;;55.47;25.25;;;;;;;;;;4923133;29;20148;-81
2020/12/16 10:43:18;;;;;;;51.00;24.88;;;;;;;;;;4917829;29;20052;-81
2020/12/16 10:45:44;;;;;;;51.47;26.13;;;;;;;;;;4938213;29;20149;-81
2020/12/16 10:48:11;;;;;;;56.72;26.48;;;;;;;;;;4935231;29;20047;-81
2020/12/16 10:50:37;;;;;;;53.13;25.55;;;;;;;;;;4933711;29;20193;-82
2020/12/16 10:53:05;;;;;;;60.35;26.98;;;;;;;;;;4936267;29;20114;-81
2020/12/16 10:55:34;;;;;;;60.65;28.17;;;;;;;;;;4898742;29;20452;-82
2020/12/16 10:58:09;;;;;;;51.15;25.55;;;;;;;;;;4924583;29;20051;-81
2020/12/16 11:00:36;;;;;;;62.55;28.33;;;;;;;;;;4939908;29;20086;-81
2020/12/16 11:03:02;;;;;;;55.33;27.73;;;;;;;;;;4951747;29;20051;-82
2020/12/16 11:06:07;;;;;;;56.50;27.13;;;;;;;;;;4950151;29;20047;-81
2020/12/16 11:08:39;;;;;;;52.70;26.38;;;;;;;;;;4951763;29;20031;-81
2020/12/16 11:11:05;;;;;;;54.28;26.67;;;;;;;;;;4957048;29;20051;-80
2020/12/16 11:13:40;;;;;;;55.63;27.08;;;;;;;;;;4954824;29;20048;-81
2020/12/16 11:16:07;;;;;;;55.58;27.83;;;;;;;;;;4956210;29;20107;-80
2020/12/16 11:18:34;;;;;;;52.28;26.40;;;;;;;;;;4958305;29;20039;-80
2020/12/16 11:21:00;;;;;;;50.30;25.92;;;;;;;;;;4942768;29;20060;-80
2020/12/16 11:23:26;;;;;;;50.13;24.90;;;;;;;;;;4942208;29;20051;-81
2020/12/16 11:25:56;;;;;;;47.15;24.77;;;;;;;;;;4956485;29;20044;-81
2020/12/16 11:28:47;;;;;;;40.13;22.27;;;;;;;;;;4955452;29;20047;-80
2020/12/16 11:31:14;;;;;;;45.28;24.02;;;;;;;;;;4954721;29;20079;-81
2020/12/16 11:33:41;;;;;;;36.22;21.75;;;;;;;;;;4937038;29;20093;-83
2020/12/16 11:36:08;;;;;;;45.78;24.08;;;;;;;;;;4948166;29;20058;-82
2020/12/16 11:38:35;;;;;;;41.67;23.38;;;;;;;;;;4915591;29;20048;-82
2020/12/16 11:41:02;;;;;;;43.78;24.77;;;;;;;;;;4927974;29;20052;-83
2020/12/16 11:43:30;;;;;;;42.30;23.70;;;;;;;;;;4924323;29;20052;-83
2020/12/16 11:45:58;;;;;;;39.67;22.52;;;;;;;;;;4932113;29;20055;-82
2020/12/16 11:48:31;;;;;;;39.17;22.27;;;;;;;;;;4926152;29;20051;-82
2020/12/16 11:50:57;;;;;;;37.88;21.92;;;;;;;;;;4942507;29;20072;-83
2020/12/16 11:53:24;;;;;;;43.22;23.88;;;;;;;;;;4940141;29;20058;-83
2020/12/16 11:55:50;;;;;;;42.53;23.75;;;;;;;;;;4940657;29;20115;-82
2020/12/16 11:58:17;;;;;;;43.17;24.75;;;;;;;;;;4922632;29;20051;-82
2020/12/16 12:00:43;;;;;;;43.10;24.52;;;;;;;;;;4939449;29;20055;-83
2020/12/16 12:03:09;;;;;;;40.10;23.55;;;;;;;;;;4923253;29;20047;-83
2020/12/16 12:05:39;;;;;;;40.05;22.85;;;;;;;;;;4923629;29;20051;-82
2020/12/16 12:08:05;;;;;;;38.28;21.75;;;;;;;;;;4940829;29;20043;-82
2020/12/16 12:10:32;;;;;;;39.00;23.13;;;;;;;;;;4939726;29;20059;-82
2020/12/16 12:12:58;;;;;;;38.75;21.42;;;;;;;;;;4938180;29;20363;-83
2020/12/16 12:15:25;;;;;;;35.17;22.60;;;;;;;;;;4918315;29;20147;-83
2020/12/16 12:17:51;;;;;;;36.75;23.17;;;;;;;;;;4918796;29;20378;-83
2020/12/16 12:20:17;;;;;;;37.88;22.55;;;;;;;;;;4920220;29;20052;-83
2020/12/16 12:22:47;;;;;;;38.13;21.83;;;;;;;;;;4918060;29;20059;-82
2020/12/16 12:25:13;;;;;;;39.00;22.30;;;;;;;;;;4920557;29;20083;-82
2020/12/16 12:27:39;;;;;;;41.53;22.65;;;;;;;;;;4922290;29;20063;-82
2020/12/16 12:30:06;;;;;;;37.40;23.75;;;;;;;;;;4924862;29;20124;-82
2020/12/16 12:32:32;;;;;;;34.88;22.15;;;;;;;;;;4927651;29;20095;-82
2020/12/16 12:34:58;;;;;;;37.28;23.17;;;;;;;;;;4939468;29;20099;-82
2020/12/16 12:37:24;;;;;;;40.15;23.35;;;;;;;;;;4935989;29;20444;-82
2020/12/16 12:40:00;;;;;;;38.35;24.42;;;;;;;;;;4917382;29;20056;-82
2020/12/16 12:42:27;;;;;;;40.72;24.35;;;;;;;;;;4905138;29;20154;-82
2020/12/16 12:44:54;;;;;;;39.25;22.55;;;;;;;;;;4907877;29;20217;-82
2020/12/16 12:47:20;;;;;;;35.05;22.52;;;;;;;;;;4936914;29;20036;-83
2020/12/16 12:49:52;;;;;;;38.00;22.65;;;;;;;;;;4924703;29;20135;-82
2020/12/16 12:52:18;;;;;;;37.33;23.10;;;;;;;;;;4920866;29;20059;-82
2020/12/16 12:54:48;;;;;;;34.72;21.17;;;;;;;;;;4903772;29;20247;-82
2020/12/16 12:57:20;;;;;;;32.95;21.73;;;;;;;;;;4907126;29;20074;-82
2020/12/16 12:59:55;;;;;;;37.95;22.23;;;;;;;;;;4920615;29;20107;-83
2020/12/16 13:02:28;;;;;;;36.47;22.60;;;;;;;;;;4919539;29;20056;-83
2020/12/16 13:04:56;;;;;;;30.95;20.38;;;;;;;;;;4918802;29;20393;-82
2020/12/16 13:07:27;;;;;;;31.85;20.45;;;;;;;;;;4918890;29;20099;-83
2020/12/16 13:09:53;;;;;;;35.67;22.48;;;;;;;;;;4913098;29;20060;-83
2020/12/16 13:12:20;;;;;;;35.35;21.60;;;;;;;;;;4901009;29;20060;-83
2020/12/16 13:14:46;;;;;;;34.95;20.92;;;;;;;;;;4904973;29;20060;-82
2020/12/16 13:17:12;;;;;;;31.90;20.48;;;;;;;;;;4920575;29;20501;-83
2020/12/16 13:19:39;;;;;;;34.58;21.13;;;;;;;;;;4930643;29;20051;-82
2020/12/16 13:22:11;;;;;;;31.55;20.45;;;;;;;;;;4922525;29;20351;-82
2020/12/16 13:24:38;;;;;;;31.00;19.25;;;;;;;;;;4938235;29;20046;-82
2020/12/16 13:27:05;;;;;;;31.67;20.27;;;;;;;;;;4940808;29;20114;-82
2020/12/16 13:29:31;;;;;;;32.58;20.83;;;;;;;;;;4939212;29;20055;-82
2020/12/16 13:31:58;;;;;;;33.38;20.83;;;;;;;;;;4922334;29;20114;-83
2020/12/16 13:34:25;;;;;;;33.08;21.40;;;;;;;;;;4931164;29;20052;-81
2020/12/16 13:36:55;;;;;;;32.25;20.75;;;;;;;;;;4925827;29;20369;-81
2020/12/16 13:39:21;;;;;;;38.17;22.70;;;;;;;;;;4931346;29;20090;-81
2020/12/16 13:41:48;;;;;;;37.03;23.52;;;;;;;;;;4931018;29;20044;-81
2020/12/16 13:44:16;;;;;;;35.20;22.45;;;;;;;;;;4932221;29;20047;-81
2020/12/16 13:46:42;;;;;;;33.45;22.75;;;;;;;;;;4927158;29;20412;-81
2020/12/16 13:49:08;;;;;;;39.00;22.60;;;;;;;;;;4908311;29;20420;-82
2020/12/16 13:51:35;;;;;;;40.30;22.40;;;;;;;;;;4911983;29;20794;-81
2020/12/16 13:54:01;;;;;;;35.38;22.50;;;;;;;;;;4910369;29;20078;-80
2020/12/16 13:56:28;;;;;;;34.85;22.33;;;;;;;;;;4925740;29;20048;-81
2020/12/16 13:58:55;;;;;;;42.42;23.38;;;;;;;;;;4924309;29;20052;-81
2020/12/16 14:01:29;;;;;;;36.35;22.58;;;;;;;;;;4909241;29;20095;-81
2020/12/16 14:03:55;;;;;;;38.42;24.40;;;;;;;;;;4932473;29;20154;-81
2020/12/16 14:06:29;;;;;;;40.45;24.27;;;;;;;;;;4928575;29;20077;-81
2020/12/16 14:08:55;;;;;;;38.33;23.33;;;;;;;;;;4919135;29;20343;-82
2020/12/16 14:11:22;;;;;;;43.13;23.15;;;;;;;;;;4922138;29;20048;-80
2020/12/16 14:14:14;;;;;;;41.97;26.10;;;;;;;;;;4917542;29;20062;-80
2020/12/16 14:16:40;;;;;;;43.15;23.48;;;;;;;;;;4925720;29;20051;-80
2020/12/16 14:19:06;;;;;;;41.95;25.63;;;;;;;;;;4938714;29;20059;-81
2020/12/16 14:21:39;;;;;;;44.25;23.92;;;;;;;;;;4932034;29;20165;-81
2020/12/16 14:24:06;;;;;;;37.25;24.20;;;;;;;;;;4932666;29;20047;-81
2020/12/16 14:26:33;;;;;;;39.15;24.00;;;;;;;;;;4924796;29;20099;-80
2020/12/16 14:28:59;;;;;;;41.33;25.92;;;;;;;;;;4912103;29;20097;-81
2020/12/16 14:31:29;;;;;;;49.40;26.70;;;;;;;;;;4914212;29;20394;-81
2020/12/16 14:33:56;;;;;;;44.45;27.55;;;;;;;;;;4910098;29;20055;-80
2020/12/16 14:36:22;;;;;;;45.53;26.20;;;;;;;;;;4904349;29;20139;-81